createdAt,value
2022-07-30T00:15:30.922Z,23.00
2022-07-30T00:35:30.854Z,23.00
2022-07-30T00:55:30.887Z,22.93
2022-07-30T01:15:30.823Z,23.00
2022-07-30T01:35:30.856Z,22.93
2022-07-30T01:55:30.786Z,23.00
2022-07-30T02:15:30.718Z,22.81
2022-07-30T02:35:30.751Z,22.93
2022-07-30T02:55:30.675Z,22.93
2022-07-30T03:15:30.668Z,22.87
2022-07-30T03:35:30.703Z,22.75
2022-07-30T03:55:30.641Z,22.68
2022-07-30T04:15:30.561Z,22.93
2022-07-30T04:35:30.599Z,22.87
2022-07-30T04:55:30.530Z,22.68
2022-07-30T05:15:30.586Z,22.75
2022-07-30T05:35:30.500Z,22.68
2022-07-30T05:55:30.430Z,22.68
2022-07-30T06:15:30.460Z,22.56
2022-07-30T06:35:30.397Z,22.62
2022-07-30T06:55:30.424Z,22.62
2022-07-30T07:15:30.370Z,22.75
2022-07-30T07:35:30.395Z,22.50
2022-07-30T07:55:30.331Z,22.56
2022-07-30T08:15:30.266Z,22.75
2022-07-30T08:35:30.315Z,22.75
2022-07-30T08:55:30.233Z,22.93
2022-07-30T09:15:30.167Z,23.00
2022-07-30T09:35:30.208Z,22.93
2022-07-30T09:55:30.181Z,23.06
2022-07-30T10:15:30.081Z,23.06
2022-07-30T10:35:30.115Z,23.12
2022-07-30T10:55:30.065Z,23.12
2022-07-30T11:15:29.983Z,23.18
2022-07-30T11:35:30.102Z,23.12
2022-07-30T11:55:29.953Z,23.12
2022-07-30T12:15:29.906Z,23.12
2022-07-30T12:35:29.950Z,23.25
2022-07-30T12:55:29.861Z,23.25
2022-07-30T13:15:29.809Z,23.18
2022-07-30T13:35:29.845Z,23.18
2022-07-30T13:55:29.783Z,23.25
2022-07-30T14:15:29.717Z,23.25
2022-07-30T14:35:29.757Z,23.37
2022-07-30T14:55:29.696Z,23.37
2022-07-30T15:15:29.638Z,23.37
2022-07-30T15:35:29.582Z,23.37
2022-07-30T15:55:29.622Z,23.62
2022-07-30T16:15:29.566Z,23.81
2022-07-30T16:35:29.512Z,23.68
2022-07-30T16:55:29.556Z,23.56
2022-07-30T17:15:29.496Z,23.37
2022-07-30T17:35:29.435Z,23.43
2022-07-30T17:55:29.386Z,23.50
2022-07-30T18:15:29.424Z,23.37
2022-07-30T18:35:29.411Z,23.43
2022-07-30T18:55:29.354Z,23.12
2022-07-30T19:15:29.295Z,23.25
2022-07-30T19:35:29.329Z,23.31
2022-07-30T19:55:29.264Z,23.06
2022-07-30T20:15:29.197Z,23.12
2022-07-30T20:35:29.238Z,23.00
2022-07-30T20:55:29.139Z,23.18
2022-07-30T21:15:29.188Z,23.12
2022-07-30T21:35:29.107Z,23.12
2022-07-30T21:55:29.050Z,23.12
2022-07-30T22:15:29.096Z,23.00
2022-07-30T22:35:29.027Z,23.06
2022-07-30T22:55:28.987Z,23.06
2022-07-30T23:15:29.010Z,23.00
2022-07-30T23:35:28.934Z,22.93
2022-07-30T23:55:28.976Z,23.06
